Time;durP1;ratioP1;P1;durP2;ratioP2;P2;SDS_P1;SDS_P2;PMS_P1;PMS_P2;Temp;Humidity;BMP_temperature;BMP_pressure;BME280_temperature;BME280_humidity;BME280_pressure;Samples;Min_cycle;Max_cycle;Signal;HPM_P1;HPM_P2
2022/12/09 00:00:39;;;;;;;15.98;9.18;;;;;;;4.78;62.03;100465.84;4901472;28;96950;-63
2022/12/09 00:03:05;;;;;;;20.10;9.88;;;;;;;4.75;62.02;100468.50;4905555;28;99165;-64
2022/12/09 00:05:32;;;;;;;17.73;9.88;;;;;;;4.76;62.56;100467.59;4904916;28;99020;-64
2022/12/09 00:07:58;;;;;;;16.48;8.95;;;;;;;4.92;61.72;100474.34;4905491;28;101323;-63
2022/12/09 00:10:24;;;;;;;13.52;8.93;;;;;;;4.88;61.61;100472.63;4902621;28;96800;-65
2022/12/09 00:12:54;;;;;;;14.85;9.15;;;;;;;4.82;62.34;100480.59;4906170;28;96992;-63
2022/12/09 00:15:20;;;;;;;16.75;9.60;;;;;;;4.84;62.30;100481.44;4903438;28;99103;-64
2022/12/09 00:17:48;;;;;;;15.02;9.10;;;;;;;4.99;61.42;100475.09;4907255;28;98995;-64
2022/12/09 00:20:14;;;;;;;13.57;9.00;;;;;;;5.03;61.69;100477.63;4907753;28;96811;-64
2022/12/09 00:22:41;;;;;;;14.73;8.75;;;;;;;4.85;61.75;100477.06;4905257;28;98582;-64
2022/12/09 00:25:08;;;;;;;14.38;9.10;;;;;;;4.90;61.74;100477.84;4906924;28;99186;-63
2022/12/09 00:27:34;;;;;;;15.95;9.55;;;;;;;5.15;61.24;100472.16;4907774;28;99966;-63
2022/12/09 00:30:01;;;;;;;15.75;9.70;;;;;;;5.06;61.42;100472.31;4908841;28;96813;-64
2022/12/09 00:32:27;;;;;;;15.30;8.48;;;;;;;5.11;61.71;100472.25;4897740;28;97269;-63
2022/12/09 00:34:55;;;;;;;17.45;10.43;;;;;;;5.28;61.17;100467.56;4905000;28;98843;-64
2022/12/09 00:37:22;;;;;;;19.77;10.80;;;;;;;4.97;61.86;100474.25;4900622;28;99325;-64
2022/12/09 00:39:48;;;;;;;19.35;10.75;;;;;;;5.05;61.97;100480.22;4905425;28;96872;-64
2022/12/09 00:42:15;;;;;;;18.02;10.23;;;;;;;5.02;61.25;100480.25;4905950;28;98048;-65
2022/12/09 00:44:41;;;;;;;16.83;10.30;;;;;;;5.02;61.00;100480.25;4909173;28;99911;-65
2022/12/09 00:47:07;;;;;;;19.63;11.13;;;;;;;5.00;61.35;100482.91;4907913;28;99203;-64
2022/12/09 00:49:34;;;;;;;19.15;10.13;;;;;;;4.82;61.78;100488.44;4909088;28;97164;-63
2022/12/09 00:52:02;;;;;;;19.13;10.60;;;;;;;5.04;61.36;100491.59;4903109;28;96804;-65
2022/12/09 00:54:28;;;;;;;16.70;9.52;;;;;;;4.99;60.90;100494.25;4902486;28;99173;-64
2022/12/09 00:56:55;;;;;;;16.67;9.70;;;;;;;4.81;61.17;100497.19;4909768;28;99126;-65
2022/12/09 00:59:22;;;;;;;21.20;10.35;;;;;;;4.65;62.11;100496.59;4910719;28;96844;-65
2022/12/09 01:01:48;;;;;;;19.67;11.73;;;;;;;4.79;61.96;100499.00;4912068;28;97030;-64
2022/12/09 01:04:16;;;;;;;21.10;11.20;;;;;;;4.89;61.69;100505.78;4902206;28;99521;-65
2022/12/09 01:06:42;;;;;;;18.10;10.88;;;;;;;4.68;61.38;100512.22;4903688;28;98845;-64
2022/12/09 01:09:12;;;;;;;19.52;10.55;;;;;;;4.56;61.44;100519.41;4909800;28;97225;-64
2022/12/09 01:11:38;;;;;;;17.70;10.57;;;;;;;4.47;61.74;100516.91;4906922;28;98792;-63
2022/12/09 01:14:05;;;;;;;18.48;10.32;;;;;;;4.57;62.23;100510.66;4905889;28;98727;-64
2022/12/09 01:16:33;;;;;;;20.30;11.48;;;;;;;4.65;62.46;100524.50;4907377;28;99124;-65
2022/12/09 01:19:01;;;;;;;21.55;12.13;;;;;;;4.68;61.89;100522.69;4906801;28;97183;-64
2022/12/09 01:21:28;;;;;;;25.10;12.38;;;;;;;4.86;62.09;100521.53;4904145;28;99005;-65
2022/12/09 01:23:55;;;;;;;23.52;12.63;;;;;;;4.66;62.26;100518.38;4908855;28;98813;-64
2022/12/09 01:26:23;;;;;;;20.67;11.77;;;;;;;4.66;62.51;100513.16;4907822;28;98851;-64
2022/12/09 01:28:51;;;;;;;23.95;13.27;;;;;;;5.12;61.32;100508.88;4910437;28;97018;-64
2022/12/09 01:31:19;;;;;;;21.85;12.20;;;;;;;5.15;60.74;100507.97;4905574;28;97093;-64
2022/12/09 01:33:46;;;;;;;24.35;13.25;;;;;;;5.19;61.19;100502.66;4906891;28;99514;-64
2022/12/09 01:36:15;;;;;;;22.77;13.15;;;;;;;5.07;60.93;100495.00;4905161;28;101032;-65
2022/12/09 01:38:42;;;;;;;22.42;13.23;;;;;;;5.09;60.73;100493.22;4905759;28;97756;-64
2022/12/09 01:41:08;;;;;;;26.63;14.15;;;;;;;4.91;60.39;100497.91;4905003;28;96931;-63
2022/12/09 01:43:37;;;;;;;25.42;14.00;;;;;;;4.93;60.91;100498.75;4908632;28;99013;-64
2022/12/09 01:46:04;;;;;;;26.90;14.80;;;;;;;4.87;60.95;100497.09;4906303;28;98921;-63
2022/12/09 01:48:33;;;;;;;24.73;13.73;;;;;;;5.00;60.52;100506.47;4904297;28;98715;-63
2022/12/09 01:51:07;;;;;;;26.85;13.73;;;;;;;4.82;60.79;100491.06;4908268;28;96868;-63
2022/12/09 01:53:37;;;;;;;26.38;13.60;;;;;;;4.86;60.77;100499.75;4901883;28;99428;-64
2022/12/09 01:56:10;;;;;;;25.83;13.65;;;;;;;4.96;60.45;100496.94;4907337;28;100000;-63
2022/12/09 01:58:38;;;;;;;24.77;14.13;;;;;;;5.13;60.41;100496.66;4909406;28;96941;-64
2022/12/09 02:01:05;;;;;;;25.15;13.55;;;;;;;5.33;59.98;100491.06;4907168;28;96907;-64
2022/12/09 02:03:32;;;;;;;26.98;15.25;;;;;;;5.54;59.66;100502.03;4909324;28;98972;-64
2022/12/09 02:05:58;;;;;;;22.58;13.18;;;;;;;5.35;58.99;100507.63;4906891;28;98773;-64
2022/12/09 02:08:25;;;;;;;23.77;13.65;;;;;;;5.16;60.05;100505.34;4908323;28;96937;-64
2022/12/09 02:11:00;;;;;;;22.60;13.63;;;;;;;5.00;59.67;100503.00;4908835;28;96870;-64
2022/12/09 02:13:37;;;;;;;24.30;13.87;;;;;;;4.99;61.28;100502.13;4904339;28;99275;-65
2022/12/09 02:16:08;;;;;;;24.65;13.95;;;;;;;4.87;61.53;100506.69;4909300;28;98959;-64
2022/12/09 02:18:42;;;;;;;23.90;13.40;;;;;;;4.94;60.65;100498.72;4906925;28;98677;-63
2022/12/09 02:21:12;;;;;;;29.02;13.63;;;;;;;4.95;61.18;100495.22;4909284;28;98642;-64
2022/12/09 02:23:41;;;;;;;25.67;14.70;;;;;;;5.21;61.16;100503.50;4908533;28;99075;-63
2022/12/09 02:26:16;;;;;;;26.95;13.63;;;;;;;5.41;60.22;100497.91;4909074;28;99872;-63
2022/12/09 02:29:02;;;;;;;25.83;13.93;;;;;;;5.32;60.74;100503.28;4903595;28;97213;-64
2022/12/09 02:31:50;;;;;;;25.55;14.55;;;;;;;5.33;60.96;100501.53;4902721;28;96940;-65
2022/12/09 02:34:19;;;;;;;29.77;14.70;;;;;;;5.40;61.07;100497.91;4907057;28;99134;-66
2022/12/09 02:36:57;;;;;;;28.60;15.68;;;;;;;5.57;60.53;100495.88;4905575;28;99165;-64
2022/12/09 02:39:29;;;;;;;24.85;13.73;;;;;;;5.61;59.77;100487.91;4906716;28;98516;-63
2022/12/09 02:41:59;;;;;;;27.10;14.55;;;;;;;5.63;59.92;100489.63;4904829;28;96874;-65
2022/12/09 02:44:26;;;;;;;28.88;14.75;;;;;;;5.81;59.88;100489.28;4903956;28;99489;-64
2022/12/09 02:46:54;;;;;;;32.88;14.43;;;;;;;5.82;59.98;100485.75;4907658;28;100063;-63
2022/12/09 02:49:25;;;;;;;25.83;14.27;;;;;;;5.74;59.72;100474.56;4906214;28;96928;-64
2022/12/09 02:51:52;;;;;;;25.90;14.65;;;;;;;5.41;60.34;100468.22;4907783;28;97944;-64
2022/12/09 02:54:20;;;;;;;25.30;14.63;;;;;;;5.36;60.56;100470.94;4900384;28;99124;-65
2022/12/09 02:56:55;;;;;;;27.83;14.38;;;;;;;5.61;60.58;100474.78;4904222;28;99291;-63
2022/12/09 02:59:22;;;;;;;22.77;13.52;;;;;;;5.83;59.44;100477.88;4902909;28;97124;-64
2022/12/09 03:01:57;;;;;;;25.25;14.40;;;;;;;5.73;59.55;100468.44;4904801;28;96874;-64
2022/12/09 03:04:28;;;;;;;29.13;14.97;;;;;;;5.56;59.82;100483.66;4907910;28;99315;-63
2022/12/09 03:07:00;;;;;;;27.33;15.30;;;;;;;5.55;60.24;100474.91;4900134;28;97633;-64
2022/12/09 03:09:30;;;;;;;26.23;14.25;;;;;;;5.74;60.18;100475.41;4909258;28;97080;-63
2022/12/09 03:12:01;;;;;;;23.60;14.00;;;;;;;5.81;59.93;100479.66;4904366;28;96909;-63
2022/12/09 03:14:35;;;;;;;22.48;13.38;;;;;;;5.67;60.25;100478.19;4902847;28;98995;-64
2022/12/09 03:17:06;;;;;;;23.05;13.07;;;;;;;5.78;60.35;100478.81;4903030;28;98835;-65
2022/12/09 03:19:42;;;;;;;28.88;14.15;;;;;;;6.15;59.39;100481.59;4906276;28;97320;-63
2022/12/09 03:22:12;;;;;;;23.95;13.88;;;;;;;6.03;59.33;100484.50;4907799;28;97036;-63
2022/12/09 03:24:45;;;;;;;26.05;13.43;;;;;;;6.32;58.83;100484.72;4909260;28;99739;-64
2022/12/09 03:27:16;;;;;;;23.33;13.75;;;;;;;6.58;58.19;100487.59;4908489;28;98919;-63
2022/12/09 03:29:50;;;;;;;24.83;13.63;;;;;;;6.13;58.57;100483.38;4908254;28;96965;-64
2022/12/09 03:32:21;;;;;;;25.05;13.35;;;;;;;5.96;59.51;100482.00;4904566;28;97094;-64
2022/12/09 03:34:54;;;;;;;22.10;12.55;;;;;;;6.00;59.67;100480.16;4907777;28;99436;-64
2022/12/09 03:37:21;;;;;;;22.48;12.35;;;;;;;5.81;59.99;100477.03;4907074;28;100437;-64
2022/12/09 03:39:50;;;;;;;22.92;12.13;;;;;;;5.75;60.42;100477.16;4904101;28;97756;-65
2022/12/09 03:42:20;;;;;;;24.05;12.82;;;;;;;5.73;60.36;100481.56;4903325;28;97194;-64
2022/12/09 03:44:50;;;;;;;25.50;13.45;;;;;;;5.75;60.40;100490.25;4907069;28;99056;-64
2022/12/09 03:47:17;;;;;;;24.40;12.93;;;;;;;5.59;60.70;100491.44;4904115;28;99221;-64
2022/12/09 03:49:43;;;;;;;24.33;13.35;;;;;;;5.74;60.55;100491.16;4905598;28;97213;-64
2022/12/09 03:52:18;;;;;;;22.85;12.60;;;;;;;5.77;60.57;100487.63;4903838;28;98728;-65
2022/12/09 03:54:45;;;;;;;23.85;12.68;;;;;;;5.80;60.11;100480.53;4906791;28;98972;-64
2022/12/09 03:57:14;;;;;;;23.83;13.05;;;;;;;5.68;60.24;100479.91;4905917;28;98968;-64
2022/12/09 03:59:43;;;;;;;25.50;14.10;;;;;;;5.63;60.77;100477.41;4907255;28;96836;-65
2022/12/09 04:02:09;;;;;;;23.10;13.23;;;;;;;5.63;60.35;100474.78;4906044;28;98514;-64
2022/12/09 04:04:39;;;;;;;25.67;13.55;;;;;;;5.89;60.07;100477.78;4905666;28;99302;-65
2022/12/09 04:07:06;;;;;;;22.83;13.70;;;;;;;5.87;60.14;100476.03;4906947;28;100035;-63
2022/12/09 04:09:37;;;;;;;25.40;13.73;;;;;;;5.71;59.97;100477.25;4903617;28;97059;-63
2022/12/09 04:12:03;;;;;;;25.90;13.90;;;;;;;5.47;60.89;100473.34;4906163;28;98813;-64
2022/12/09 04:14:30;;;;;;;21.70;13.25;;;;;;;5.43;61.14;100475.16;4904296;28;99008;-64
2022/12/09 04:16:56;;;;;;;26.10;13.77;;;;;;;5.64;60.50;100468.66;4908359;28;99086;-64
2022/12/09 04:19:23;;;;;;;24.67;14.05;;;;;;;5.53;60.98;100476.69;4909753;28;97044;-64
2022/12/09 04:21:49;;;;;;;25.45;13.43;;;;;;;5.69;60.33;100472.03;4910522;28;97917;-65
2022/12/09 04:24:15;;;;;;;25.88;14.00;;;;;;;5.39;61.50;100472.59;4909308;28;99058;-64
2022/12/09 04:26:43;;;;;;;24.48;14.18;;;;;;;5.55;60.69;100469.69;4908426;28;99470;-64
2022/12/09 04:29:10;;;;;;;27.50;15.80;;;;;;;5.64;60.86;100475.66;4909141;28;97626;-64
2022/12/09 04:31:37;;;;;;;24.05;13.45;;;;;;;5.62;60.63;100467.81;4909893;28;97630;-63
2022/12/09 04:34:04;;;;;;;26.05;13.75;;;;;;;5.92;60.32;100468.97;4911103;28;99029;-65
2022/12/09 04:36:30;;;;;;;25.90;13.63;;;;;;;6.01;59.49;100466.16;4907866;28;99038;-64
2022/12/09 04:38:57;;;;;;;28.42;13.18;;;;;;;5.81;59.66;100473.53;4908594;28;96826;-65
2022/12/09 04:41:23;;;;;;;24.65;13.85;;;;;;;5.57;60.56;100467.03;4909332;28;97215;-63
2022/12/09 04:43:51;;;;;;;25.63;13.50;;;;;;;5.53;60.52;100475.84;4909619;28;99110;-63
2022/12/09 04:46:18;;;;;;;24.42;14.05;;;;;;;5.95;59.52;100479.41;4909950;28;99410;-63
2022/12/09 04:48:46;;;;;;;28.60;14.20;;;;;;;5.84;59.93;100473.50;4903365;28;98949;-64
2022/12/09 04:51:14;;;;;;;25.40;13.85;;;;;;;5.82;60.27;100476.13;4908733;28;96927;-65
2022/12/09 04:53:40;;;;;;;26.65;14.57;;;;;;;5.83;60.14;100474.38;4907671;28;99047;-63
2022/12/09 04:56:08;;;;;;;25.58;13.75;;;;;;;5.82;60.05;100476.13;4901473;28;99305;-65
2022/12/09 04:58:35;;;;;;;25.60;14.32;;;;;;;5.67;60.66;100470.31;4909381;28;98409;-64
2022/12/09 05:01:06;;;;;;;25.10;13.50;;;;;;;5.82;60.73;100473.50;4908608;28;96914;-64
2022/12/09 05:03:33;;;;;;;28.83;14.85;;;;;;;5.70;60.50;100476.38;4908600;28;99032;-65
2022/12/09 05:05:59;;;;;;;29.38;14.45;;;;;;;5.67;60.64;100479.06;4907564;28;100524;-64
2022/12/09 05:08:25;;;;;;;25.48;14.05;;;;;;;5.79;59.69;100481.44;4907300;28;96832;-64
2022/12/09 05:10:52;;;;;;;24.33;14.02;;;;;;;5.83;60.02;100477.88;4908450;28;98522;-64
2022/12/09 05:13:18;;;;;;;29.63;14.52;;;;;;;5.73;60.44;100480.69;4907231;28;99220;-65
2022/12/09 05:15:45;;;;;;;27.63;14.98;;;;;;;5.68;60.84;100472.91;4909713;28;98802;-63
2022/12/09 05:18:12;;;;;;;30.15;14.80;;;;;;;5.58;60.59;100471.34;4907710;28;97008;-71
2022/12/09 05:20:40;;;;;;;26.25;14.90;;;;;;;5.42;61.35;100476.03;4909692;28;96865;-64
2022/12/09 05:23:07;;;;;;;29.98;15.35;;;;;;;5.65;60.86;100465.09;4906972;28;98927;-65
2022/12/09 05:25:33;;;;;;;27.80;15.15;;;;;;;5.65;60.69;100469.47;4905580;28;98807;-63
2022/12/09 05:28:00;;;;;;;26.48;14.95;;;;;;;5.83;59.75;100472.63;4908209;28;99153;-64
2022/12/09 05:30:26;;;;;;;27.60;15.07;;;;;;;5.60;60.32;100480.06;4906844;28;96910;-63
2022/12/09 05:32:53;;;;;;;27.23;13.82;;;;;;;5.53;60.94;100478.44;4906099;28;99056;-64
2022/12/09 05:35:20;;;;;;;26.67;14.88;;;;;;;5.38;60.80;100476.16;4910521;28;99436;-67
2022/12/09 05:37:47;;;;;;;29.65;15.20;;;;;;;5.52;60.70;100479.34;4909050;28;98471;-69
2022/12/09 05:40:13;;;;;;;26.83;14.63;;;;;;;5.40;60.51;100479.56;4909306;28;97212;-69
2022/12/09 05:42:40;;;;;;;28.08;14.57;;;;;;;5.40;60.44;100479.56;4907953;28;99419;-69
2022/12/09 05:45:07;;;;;;;31.08;16.05;;;;;;;5.32;60.78;100491.94;4902726;28;98816;-70
2022/12/09 05:47:33;;;;;;;30.13;14.65;;;;;;;5.58;59.51;100489.69;4907278;28;96952;-69
2022/12/09 05:50:00;;;;;;;30.90;15.15;;;;;;;5.40;60.20;100482.19;4908032;28;96904;-68
2022/12/09 05:52:27;;;;;;;26.05;14.55;;;;;;;5.59;59.97;100483.56;4907643;28;98743;-69
2022/12/09 05:54:54;;;;;;;26.02;14.73;;;;;;;5.68;59.99;100485.16;4907878;28;98891;-68
2022/12/09 05:57:20;;;;;;;29.52;14.93;;;;;;;5.68;60.21;100493.91;4908768;28;96745;-69
2022/12/09 05:59:47;;;;;;;30.65;15.23;;;;;;;5.85;59.77;100485.69;4908744;28;97678;-69
2022/12/09 06:02:13;;;;;;;26.38;14.10;;;;;;;5.68;59.37;100493.03;4904357;28;99017;-69
2022/12/09 06:04:40;;;;;;;27.98;14.55;;;;;;;5.70;59.90;100480.75;4909152;28;99379;-70
2022/12/09 06:07:06;;;;;;;27.48;13.48;;;;;;;5.74;59.60;100483.28;4909219;28;97944;-72
2022/12/09 06:09:34;;;;;;;27.13;14.55;;;;;;;5.76;59.53;100492.00;4910013;28;98367;-70
2022/12/09 06:12:00;;;;;;;27.30;14.77;;;;;;;5.67;59.74;100480.81;4907097;28;99062;-70
2022/12/09 06:14:26;;;;;;;24.30;13.90;;;;;;;5.65;59.72;100487.81;4906867;28;98824;-69
2022/12/09 06:16:53;;;;;;;25.63;14.15;;;;;;;5.77;59.76;100478.00;4908224;28;96996;-69
2022/12/09 06:19:20;;;;;;;26.35;14.02;;;;;;;5.87;59.77;100478.66;4907832;28;98771;-72
2022/12/09 06:21:46;;;;;;;28.65;14.20;;;;;;;5.88;59.77;100486.53;4907711;28;98938;-69
2022/12/09 06:24:13;;;;;;;23.42;13.80;;;;;;;5.87;59.74;100486.53;4909211;28;98135;-70
2022/12/09 06:26:40;;;;;;;26.70;14.32;;;;;;;5.81;60.34;100490.13;4908107;28;98526;-75
2022/12/09 06:29:07;;;;;;;27.48;14.82;;;;;;;6.04;59.79;100481.81;4911719;28;97899;-69
2022/12/09 06:31:33;;;;;;;26.10;14.32;;;;;;;5.91;60.07;100494.31;4908418;28;98934;-69
2022/12/09 06:34:00;;;;;;;26.77;14.68;;;;;;;5.90;59.95;100495.25;4903720;28;99012;-69
2022/12/09 06:36:27;;;;;;;28.38;14.95;;;;;;;5.78;61.08;100498.03;4906722;28;96829;-72
2022/12/09 06:38:55;;;;;;;29.88;15.38;;;;;;;5.93;60.39;100494.28;4909040;28;96887;-69
2022/12/09 06:41:22;;;;;;;31.80;15.88;;;;;;;5.94;60.74;100496.03;4902015;28;99250;-69
2022/12/09 06:43:50;;;;;;;33.13;16.90;;;;;;;5.84;61.06;100497.09;4910172;28;98946;-72
2022/12/09 06:46:18;;;;;;;32.17;16.02;;;;;;;5.98;60.48;100498.53;4909120;28;96846;-71
2022/12/09 06:48:45;;;;;;;29.33;15.73;;;;;;;5.94;60.68;100509.13;4900687;28;98200;-69
2022/12/09 06:51:11;;;;;;;37.03;16.92;;;;;;;5.99;60.81;100505.53;4906951;28;98432;-68
2022/12/09 06:53:38;;;;;;;31.40;16.52;;;;;;;6.33;60.03;100504.81;4907741;28;99078;-69
2022/12/09 06:56:07;;;;;;;31.08;15.07;;;;;;;6.24;60.09;100500.63;4909894;28;97161;-68
2022/12/09 06:58:33;;;;;;;33.33;15.68;;;;;;;6.35;59.84;100508.28;4901459;28;99405;-68
2022/12/09 07:01:07;;;;;;;31.02;13.95;;;;;;;6.04;60.67;100504.59;4902440;28;99574;-69
2022/12/09 07:03:34;;;;;;;25.58;13.77;;;;;;;6.20;60.09;100500.72;4903680;28;101245;-68
2022/12/09 07:06:00;;;;;;;29.92;14.98;;;;;;;6.27;59.96;100499.69;4903964;28;98402;-69
2022/12/09 07:08:26;;;;;;;32.17;15.00;;;;;;;6.18;59.73;100500.75;4906778;28;98371;-67
2022/12/09 07:10:53;;;;;;;32.38;16.60;;;;;;;6.31;59.48;100502.22;4902823;28;98948;-68
2022/12/09 07:13:19;;;;;;;28.77;14.63;;;;;;;6.33;59.13;100507.44;4903627;28;98284;-68
2022/12/09 07:15:45;;;;;;;25.88;14.60;;;;;;;6.51;58.77;100514.03;4900688;28;97153;-68
2022/12/09 07:18:13;;;;;;;25.00;14.00;;;;;;;6.03;60.28;100511.59;4901452;28;97511;-68
2022/12/09 07:20:40;;;;;;;26.33;14.27;;;;;;;6.45;59.11;100512.41;4902574;28;99000;-68
2022/12/09 07:23:06;;;;;;;28.05;14.40;;;;;;;6.18;59.53;100516.50;4903764;28;99305;-68
2022/12/09 07:25:32;;;;;;;29.75;14.95;;;;;;;6.09;59.53;100510.59;4904439;28;96812;-68
2022/12/09 07:27:59;;;;;;;26.17;13.52;;;;;;;6.34;59.53;100512.66;4903703;28;97925;-68
2022/12/09 07:30:25;;;;;;;26.63;14.00;;;;;;;6.31;59.71;100511.84;4903399;28;99643;-68
2022/12/09 07:32:51;;;;;;;30.83;14.45;;;;;;;6.23;59.52;100508.53;4900427;28;98652;-68
2022/12/09 07:35:19;;;;;;;29.70;15.90;;;;;;;6.17;59.60;100513.94;4899887;28;96866;-68
2022/12/09 07:37:46;;;;;;;27.70;14.77;;;;;;;6.17;59.71;100508.69;4907370;28;96966;-67
2022/12/09 07:40:12;;;;;;;31.10;15.45;;;;;;;6.23;59.59;100512.03;4904428;28;99167;-70
2022/12/09 07:42:39;;;;;;;34.40;15.95;;;;;;;6.08;59.94;100522.84;4906264;28;99335;-68
2022/12/09 07:45:06;;;;;;;37.70;17.45;;;;;;;6.20;59.82;100519.09;4905349;28;96767;-68
2022/12/09 07:47:33;;;;;;;33.95;16.58;;;;;;;6.19;59.65;100522.59;4904985;28;97363;-68
2022/12/09 07:49:59;;;;;;;33.78;16.40;;;;;;;6.38;59.50;100519.56;4908537;28;99150;-68
2022/12/09 07:52:27;;;;;;;35.42;16.88;;;;;;;6.37;58.87;100519.56;4906751;28;99119;-68
2022/12/09 07:54:54;;;;;;;40.13;17.80;;;;;;;6.55;58.94;100518.31;4914027;28;97141;-68
2022/12/09 07:57:22;;;;;;;39.42;18.55;;;;;;;6.38;59.16;100518.69;4909891;28;98166;-69
2022/12/09 07:59:48;;;;;;;41.22;17.65;;;;;;;6.44;59.59;100520.31;4916151;28;100902;-68
2022/12/09 08:02:14;;;;;;;38.92;17.77;;;;;;;6.50;58.79;100522.81;4914851;28;99055;-68
2022/12/09 08:04:41;;;;;;;36.42;17.33;;;;;;;6.48;58.56;100524.59;4913527;28;96908;-69
2022/12/09 08:07:07;;;;;;;36.83;17.65;;;;;;;6.75;58.54;100526.63;4914515;28;97273;-67
2022/12/09 08:09:35;;;;;;;39.17;16.90;;;;;;;6.28;59.74;100527.66;4914967;28;99015;-68
2022/12/09 08:12:01;;;;;;;40.80;17.13;;;;;;;6.44;59.32;100528.19;4916909;28;98940;-68
2022/12/09 08:14:27;;;;;;;40.42;17.77;;;;;;;6.54;59.35;100533.22;4916123;28;96766;-68
2022/12/09 08:16:54;;;;;;;38.22;18.08;;;;;;;6.57;59.24;100527.00;4915867;28;97965;-68
2022/12/09 08:19:20;;;;;;;43.67;19.33;;;;;;;6.79;58.88;100526.50;4916527;28;98910;-68
2022/12/09 08:21:47;;;;;;;36.75;18.45;;;;;;;6.72;59.05;100527.53;4915367;28;99339;-69
2022/12/09 08:24:13;;;;;;;39.47;18.25;;;;;;;6.78;58.56;100527.38;4912463;28;96876;-68
2022/12/09 08:26:41;;;;;;;37.88;18.45;;;;;;;6.83;58.24;100524.66;4914906;28;96764;-68
2022/12/09 08:29:09;;;;;;;45.70;18.15;;;;;;;6.64;58.99;100518.97;4911368;28;99481;-69
2022/12/09 08:31:36;;;;;;;40.60;18.77;;;;;;;6.74;58.40;100522.25;4912726;28;99272;-69
2022/12/09 08:34:03;;;;;;;41.60;18.73;;;;;;;6.79;58.24;100520.38;4914310;28;97973;-68
2022/12/09 08:36:31;;;;;;;39.65;18.17;;;;;;;6.79;58.43;100526.50;4909365;28;96815;-69
2022/12/09 08:38:59;;;;;;;40.40;18.02;;;;;;;6.66;59.19;100535.56;4914926;28;98458;-70
2022/12/09 08:41:34;;;;;;;41.58;19.52;;;;;;;6.68;58.74;100536.41;4916648;28;98974;-70
2022/12/09 08:44:03;;;;;;;36.10;18.13;;;;;;;6.66;59.23;100537.31;4913898;28;96866;-69
2022/12/09 08:46:29;;;;;;;36.65;17.88;;;;;;;6.87;58.96;100538.59;4917101;28;98128;-68
2022/12/09 08:48:56;;;;;;;42.50;19.02;;;;;;;6.56;59.08;100536.69;4916250;28;99493;-69
2022/12/09 08:51:22;;;;;;;38.67;17.80;;;;;;;6.66;58.91;100535.56;4916888;28;99212;-68
2022/12/09 08:53:49;;;;;;;48.00;20.88;;;;;;;6.86;57.98;100542.09;4915261;28;97161;-70
2022/12/09 08:56:15;;;;;;;37.90;17.52;;;;;;;6.97;57.99;100537.44;4917014;28;97641;-69
2022/12/09 08:58:42;;;;;;;46.95;18.80;;;;;;;6.66;58.73;100537.31;4913867;28;99587;-68
2022/12/09 09:01:16;;;;;;;42.40;19.13;;;;;;;7.18;57.46;100544.81;4913612;28;98003;-68
2022/12/09 09:03:43;;;;;;;40.03;18.58;;;;;;;6.74;58.40;100546.75;4897998;28;98259;-69
2022/12/09 09:06:10;;;;;;;43.63;19.48;;;;;;;6.90;58.12;100549.88;4910272;28;98068;-68
2022/12/09 09:08:37;;;;;;;38.45;19.08;;;;;;;6.98;58.12;100547.06;4906919;28;98631;-68
2022/12/09 09:11:09;;;;;;;41.60;18.50;;;;;;;7.00;57.77;100550.53;4905252;28;98929;-69
2022/12/09 09:13:35;;;;;;;44.55;19.60;;;;;;;6.75;58.33;100553.75;4903605;28;96781;-69
2022/12/09 09:16:02;;;;;;;45.65;19.10;;;;;;;6.75;58.44;100551.13;4911615;28;97173;-69
2022/12/09 09:18:29;;;;;;;46.95;19.98;;;;;;;6.87;58.37;100547.31;4908879;28;98822;-69
2022/12/09 09:20:57;;;;;;;44.60;19.15;;;;;;;6.88;58.30;100556.06;4906274;28;99373;-67
2022/12/09 09:23:24;;;;;;;42.92;19.70;;;;;;;6.64;58.86;100557.47;4907182;28;96776;-68
2022/12/09 09:25:50;;;;;;;38.70;18.83;;;;;;;6.68;58.58;100554.78;4909309;28;97019;-68
2022/12/09 09:28:17;;;;;;;42.40;18.23;;;;;;;6.42;59.10;100557.09;4908220;28;98965;-70
2022/12/09 09:30:43;;;;;;;40.35;17.77;;;;;;;6.47;58.29;100550.00;4910315;28;99083;-69
2022/12/09 09:33:09;;;;;;;43.03;18.13;;;;;;;6.47;58.94;100550.00;4901235;28;97263;-68
2022/12/09 09:35:37;;;;;;;45.25;19.48;;;;;;;6.73;58.53;100546.78;4906942;28;96972;-68
2022/12/09 09:38:04;;;;;;;37.72;18.42;;;;;;;6.62;58.36;100547.03;4904304;28;98830;-68
2022/12/09 09:40:32;;;;;;;39.67;18.23;;;;;;;6.65;58.33;100554.81;4905305;28;99374;-68
2022/12/09 09:43:00;;;;;;;37.33;18.17;;;;;;;6.76;57.88;100544.94;4907843;28;96747;-68
2022/12/09 09:45:27;;;;;;;36.85;16.70;;;;;;;6.33;58.77;100539.78;4908506;28;97260;-68
2022/12/09 09:47:56;;;;;;;36.72;17.00;;;;;;;6.79;57.95;100546.63;4910533;28;98842;-70
2022/12/09 09:50:30;;;;;;;38.03;17.20;;;;;;;6.50;58.06;100542.03;4907843;28;99053;-69
2022/12/09 09:53:02;;;;;;;35.80;17.00;;;;;;;6.76;57.52;100537.06;4911306;28;97144;-69
2022/12/09 09:55:36;;;;;;;42.15;18.35;;;;;;;6.66;58.21;100545.19;4909044;28;97124;-69
2022/12/09 09:58:12;;;;;;;37.63;17.92;;;;;;;6.59;57.90;100548.84;4908246;28;99303;-68
2022/12/09 10:00:47;;;;;;;36.60;16.83;;;;;;;6.62;58.21;100547.03;4903917;28;99771;-69
2022/12/09 10:03:23;;;;;;;40.00;17.25;;;;;;;6.88;58.01;100546.44;4908194;28;96823;-69
2022/12/09 10:05:53;;;;;;;40.92;16.80;;;;;;;6.57;58.04;100546.25;4910952;28;96830;-69
2022/12/09 10:08:34;;;;;;;34.15;16.25;;;;;;;6.90;57.10;100544.63;4910246;28;99056;-69
2022/12/09 10:11:16;;;;;;;31.15;14.90;;;;;;;6.63;57.59;100540.84;4907712;28;98980;-70
2022/12/09 10:13:49;;;;;;;34.40;15.85;;;;;;;6.73;57.58;100537.16;4907196;28;98751;-69
2022/12/09 10:16:18;;;;;;;40.65;16.77;;;;;;;6.84;56.77;100536.00;4908637;28;99549;-68
2022/12/09 10:18:57;;;;;;;39.05;16.25;;;;;;;6.82;56.44;100537.84;4909335;28;99085;-68
2022/12/09 10:21:24;;;;;;;35.50;17.52;;;;;;;6.91;56.85;100534.97;4904041;28;101490;-69
2022/12/09 10:23:55;;;;;;;35.75;16.83;;;;;;;7.01;56.77;100533.88;4909970;28;97294;-68
2022/12/09 10:26:25;;;;;;;34.97;18.02;;;;;;;7.18;56.04;100531.69;4908143;28;96731;-69
2022/12/09 10:28:59;;;;;;;38.67;17.00;;;;;;;7.14;56.30;100532.66;4906972;28;100391;-69
2022/12/09 10:31:27;;;;;;;40.90;17.20;;;;;;;7.11;56.19;100528.34;4908410;28;100639;-68
2022/12/09 10:33:54;;;;;;;38.08;18.35;;;;;;;7.14;55.44;100530.91;4910101;28;97155;-68
2022/12/09 10:36:24;;;;;;;40.40;18.15;;;;;;;7.08;55.96;100525.81;4906160;28;97286;-68
2022/12/09 10:38:52;;;;;;;37.53;17.65;;;;;;;7.14;55.71;100527.41;4908701;28;98934;-69
2022/12/09 10:44:21;;;;;;;35.05;16.85;;;;;;;7.10;55.52;100525.75;4888319;28;97974;-68
2022/12/09 10:46:49;;;;;;;35.85;17.70;;;;;;;7.07;56.13;100524.06;4910156;28;96937;-69
2022/12/09 10:49:21;;;;;;;36.85;18.27;;;;;;;7.21;55.25;100523.72;4909093;28;98991;-69
2022/12/09 10:51:49;;;;;;;35.17;17.27;;;;;;;7.31;55.44;100525.22;4900649;28;102243;-69
2022/12/09 10:54:29;;;;;;;40.33;19.15;;;;;;;7.06;55.83;100517.09;4903759;28;97434;-69
2022/12/09 10:57:21;;;;;;;39.92;18.67;;;;;;;6.89;56.30;100507.91;4910205;28;98893;-68
2022/12/09 10:59:57;;;;;;;38.45;18.77;;;;;;;6.87;56.73;100512.31;4903061;28;99009;-69
2022/12/09 11:02:24;;;;;;;41.33;19.50;;;;;;;6.86;56.42;100510.59;4902637;28;99460;-68
2022/12/09 11:04:50;;;;;;;42.08;18.50;;;;;;;6.90;56.42;100514.84;4904954;28;97404;-67
2022/12/09 11:07:20;;;;;;;41.10;18.98;;;;;;;6.86;56.03;100506.19;4908934;28;97943;-68
2022/12/09 11:09:49;;;;;;;36.80;17.48;;;;;;;7.05;56.15;100512.72;4907269;28;98769;-69
2022/12/09 11:12:19;;;;;;;37.63;18.17;;;;;;;6.93;56.57;100506.91;4907348;28;100263;-68
2022/12/09 11:14:51;;;;;;;41.67;17.77;;;;;;;6.66;56.77;100509.31;4909117;28;98017;-69
2022/12/09 11:17:21;;;;;;;35.22;17.38;;;;;;;6.75;56.78;100503.84;4909699;28;96792;-68
2022/12/09 11:19:50;;;;;;;37.30;18.25;;;;;;;6.46;57.35;100506.25;4909468;28;98845;-70
2022/12/09 11:22:32;;;;;;;39.72;18.42;;;;;;;6.86;57.18;100505.34;4910104;28;98203;-67
2022/12/09 11:25:26;;;;;;;41.90;18.55;;;;;;;7.09;56.26;100503.00;4906903;28;96755;-69